sensor_id;sensor_type;location;lat;lon;timestamp;P1;durP1;ratioP1;P2;durP2;ratioP2
33672;SDS011;20011;51.510;9.942;2023-03-14T00:01:14;3.33;;;1.00;;
33672;SDS011;20011;51.510;9.942;2023-03-14T00:03:42;1.45;;;0.60;;
33672;SDS011;20011;51.510;9.942;2023-03-14T00:06:10;1.70;;;1.05;;
33672;SDS011;20011;51.510;9.942;2023-03-14T00:08:37;2.55;;;1.33;;
33672;SDS011;20011;51.510;9.942;2023-03-14T00:11:14;5.00;;;0.90;;
33672;SDS011;20011;51.510;9.942;2023-03-14T00:13:43;4.05;;;1.15;;
33672;SDS011;20011;51.510;9.942;2023-03-14T00:16:20;1.58;;;0.75;;
33672;SDS011;20011;51.510;9.942;2023-03-14T00:18:47;1.63;;;0.90;;
33672;SDS011;20011;51.510;9.942;2023-03-14T00:21:14;0.70;;;0.70;;
33672;SDS011;20011;51.510;9.942;2023-03-14T00:23:41;1.38;;;0.60;;
33672;SDS011;20011;51.510;9.942;2023-03-14T00:26:10;1.50;;;0.80;;
33672;SDS011;20011;51.510;9.942;2023-03-14T00:28:39;3.55;;;0.90;;
33672;SDS011;20011;51.510;9.942;2023-03-14T00:31:08;1.08;;;0.90;;
33672;SDS011;20011;51.510;9.942;2023-03-14T00:33:36;7.38;;;0.90;;
33672;SDS011;20011;51.510;9.942;2023-03-14T00:36:05;7.00;;;2.05;;
33672;SDS011;20011;51.510;9.942;2023-03-14T00:38:36;1.13;;;0.70;;
33672;SDS011;20011;51.510;9.942;2023-03-14T00:41:05;1.65;;;0.80;;
33672;SDS011;20011;51.510;9.942;2023-03-14T00:43:33;3.88;;;1.00;;
33672;SDS011;20011;51.510;9.942;2023-03-14T00:46:00;1.38;;;0.70;;
33672;SDS011;20011;51.510;9.942;2023-03-14T00:48:28;0.68;;;0.55;;
33672;SDS011;20011;51.510;9.942;2023-03-14T00:50:55;1.55;;;0.80;;
33672;SDS011;20011;51.510;9.942;2023-03-14T00:53:22;1.48;;;0.80;;
33672;SDS011;20011;51.510;9.942;2023-03-14T00:55:49;2.60;;;0.98;;
33672;SDS011;20011;51.510;9.942;2023-03-14T00:58:17;1.92;;;0.68;;
33672;SDS011;20011;51.510;9.942;2023-03-14T01:00:44;2.15;;;1.13;;
33672;SDS011;20011;51.510;9.942;2023-03-14T01:03:12;1.77;;;1.00;;
33672;SDS011;20011;51.510;9.942;2023-03-14T01:05:41;1.23;;;0.70;;
33672;SDS011;20011;51.510;9.942;2023-03-14T01:08:08;1.75;;;0.80;;
33672;SDS011;20011;51.510;9.942;2023-03-14T01:10:37;3.10;;;0.82;;
33672;SDS011;20011;51.510;9.942;2023-03-14T01:13:06;3.72;;;0.98;;
33672;SDS011;20011;51.510;9.942;2023-03-14T01:15:35;0.75;;;0.75;;
33672;SDS011;20011;51.510;9.942;2023-03-14T01:18:03;2.25;;;0.95;;
33672;SDS011;20011;51.510;9.942;2023-03-14T01:20:30;1.38;;;0.80;;
33672;SDS011;20011;51.510;9.942;2023-03-14T01:22:57;1.60;;;0.68;;
33672;SDS011;20011;51.510;9.942;2023-03-14T01:25:24;2.22;;;0.90;;
33672;SDS011;20011;51.510;9.942;2023-03-14T01:27:53;3.13;;;1.02;;
33672;SDS011;20011;51.510;9.942;2023-03-14T01:30:20;1.52;;;0.82;;
33672;SDS011;20011;51.510;9.942;2023-03-14T01:32:47;2.38;;;1.08;;
33672;SDS011;20011;51.510;9.942;2023-03-14T01:35:14;0.98;;;0.50;;
33672;SDS011;20011;51.510;9.942;2023-03-14T01:37:42;0.60;;;0.50;;
33672;SDS011;20011;51.510;9.942;2023-03-14T01:40:14;1.90;;;0.77;;
33672;SDS011;20011;51.510;9.942;2023-03-14T01:43:26;3.70;;;0.77;;
33672;SDS011;20011;51.510;9.942;2023-03-14T01:54:22;1.77;;;0.82;;
33672;SDS011;20011;51.510;9.942;2023-03-14T01:57:02;2.90;;;0.93;;
33672;SDS011;20011;51.510;9.942;2023-03-14T01:59:33;2.97;;;0.75;;
33672;SDS011;20011;51.510;9.942;2023-03-14T02:02:02;2.30;;;1.02;;
33672;SDS011;20011;51.510;9.942;2023-03-14T02:04:34;3.92;;;1.23;;
33672;SDS011;20011;51.510;9.942;2023-03-14T02:07:12;2.00;;;1.02;;
33672;SDS011;20011;51.510;9.942;2023-03-14T02:09:48;2.88;;;1.02;;
33672;SDS011;20011;51.510;9.942;2023-03-14T02:12:22;1.55;;;0.85;;
33672;SDS011;20011;51.510;9.942;2023-03-14T02:15:04;1.83;;;1.08;;
33672;SDS011;20011;51.510;9.942;2023-03-14T02:17:48;3.53;;;1.27;;
33672;SDS011;20011;51.510;9.942;2023-03-14T02:20:38;2.30;;;1.00;;
33672;SDS011;20011;51.510;9.942;2023-03-14T02:23:13;3.08;;;1.02;;
33672;SDS011;20011;51.510;9.942;2023-03-14T02:25:47;2.35;;;0.85;;
33672;SDS011;20011;51.510;9.942;2023-03-14T02:28:23;2.03;;;1.00;;
33672;SDS011;20011;51.510;9.942;2023-03-14T02:30:55;4.78;;;1.17;;
33672;SDS011;20011;51.510;9.942;2023-03-14T02:33:22;3.17;;;1.08;;
33672;SDS011;20011;51.510;9.942;2023-03-14T02:35:53;2.00;;;1.10;;
33672;SDS011;20011;51.510;9.942;2023-03-14T02:41:09;2.00;;;0.90;;
33672;SDS011;20011;51.510;9.942;2023-03-14T02:43:42;3.67;;;1.10;;
33672;SDS011;20011;51.510;9.942;2023-03-14T02:46:12;2.60;;;1.02;;
33672;SDS011;20011;51.510;9.942;2023-03-14T02:48:42;4.90;;;1.58;;
33672;SDS011;20011;51.510;9.942;2023-03-14T02:51:15;2.60;;;1.20;;
33672;SDS011;20011;51.510;9.942;2023-03-14T02:56:13;3.10;;;1.23;;
33672;SDS011;20011;51.510;9.942;2023-03-14T02:58:40;5.55;;;1.88;;
33672;SDS011;20011;51.510;9.942;2023-03-14T03:01:28;4.88;;;1.10;;
33672;SDS011;20011;51.510;9.942;2023-03-14T03:03:55;6.00;;;1.20;;
33672;SDS011;20011;51.510;9.942;2023-03-14T03:06:22;2.55;;;1.35;;
33672;SDS011;20011;51.510;9.942;2023-03-14T03:08:49;4.72;;;1.48;;
33672;SDS011;20011;51.510;9.942;2023-03-14T03:11:16;3.53;;;1.25;;
33672;SDS011;20011;51.510;9.942;2023-03-14T03:13:43;6.47;;;1.73;;
33672;SDS011;20011;51.510;9.942;2023-03-14T03:16:11;6.90;;;1.55;;
33672;SDS011;20011;51.510;9.942;2023-03-14T03:18:41;3.10;;;1.20;;
33672;SDS011;20011;51.510;9.942;2023-03-14T03:21:08;3.42;;;1.27;;
33672;SDS011;20011;51.510;9.942;2023-03-14T03:23:35;7.53;;;1.50;;
33672;SDS011;20011;51.510;9.942;2023-03-14T03:26:04;2.85;;;1.40;;
33672;SDS011;20011;51.510;9.942;2023-03-14T03:28:32;4.90;;;1.20;;
33672;SDS011;20011;51.510;9.942;2023-03-14T03:31:06;4.60;;;2.53;;
33672;SDS011;20011;51.510;9.942;2023-03-14T03:33:35;4.95;;;1.23;;
33672;SDS011;20011;51.510;9.942;2023-03-14T03:36:03;8.80;;;1.75;;
33672;SDS011;20011;51.510;9.942;2023-03-14T03:38:37;4.03;;;1.52;;
33672;SDS011;20011;51.510;9.942;2023-03-14T03:41:05;4.32;;;1.55;;
33672;SDS011;20011;51.510;9.942;2023-03-14T03:43:34;5.53;;;1.52;;
33672;SDS011;20011;51.510;9.942;2023-03-14T03:46:04;4.40;;;1.43;;
33672;SDS011;20011;51.510;9.942;2023-03-14T03:48:32;1.80;;;1.00;;
33672;SDS011;20011;51.510;9.942;2023-03-14T03:51:02;7.97;;;1.65;;
33672;SDS011;20011;51.510;9.942;2023-03-14T03:53:31;0.98;;;0.85;;
33672;SDS011;20011;51.510;9.942;2023-03-14T03:56:07;8.07;;;1.20;;
33672;SDS011;20011;51.510;9.942;2023-03-14T03:58:35;3.83;;;1.35;;
33672;SDS011;20011;51.510;9.942;2023-03-14T04:01:05;10.07;;;1.65;;
33672;SDS011;20011;51.510;9.942;2023-03-14T04:03:36;5.75;;;1.38;;
33672;SDS011;20011;51.510;9.942;2023-03-14T04:06:07;5.28;;;1.20;;
33672;SDS011;20011;51.510;9.942;2023-03-14T04:08:37;3.85;;;0.90;;
33672;SDS011;20011;51.510;9.942;2023-03-14T04:11:09;3.75;;;1.38;;
33672;SDS011;20011;51.510;9.942;2023-03-14T04:13:51;2.78;;;1.00;;
33672;SDS011;20011;51.510;9.942;2023-03-14T04:16:20;3.55;;;1.02;;
33672;SDS011;20011;51.510;9.942;2023-03-14T04:18:51;0.90;;;0.70;;
33672;SDS011;20011;51.510;9.942;2023-03-14T04:21:21;2.53;;;0.90;;
33672;SDS011;20011;51.510;9.942;2023-03-14T04:23:53;1.95;;;1.00;;
33672;SDS011;20011;51.510;9.942;2023-03-14T04:26:20;7.57;;;1.60;;
33672;SDS011;20011;51.510;9.942;2023-03-14T04:28:47;5.22;;;1.13;;
33672;SDS011;20011;51.510;9.942;2023-03-14T04:31:15;3.50;;;1.20;;
33672;SDS011;20011;51.510;9.942;2023-03-14T04:33:45;7.15;;;1.35;;
33672;SDS011;20011;51.510;9.942;2023-03-14T04:36:16;3.22;;;1.05;;
33672;SDS011;20011;51.510;9.942;2023-03-14T04:38:43;3.42;;;1.02;;
33672;SDS011;20011;51.510;9.942;2023-03-14T04:41:12;2.83;;;1.10;;
33672;SDS011;20011;51.510;9.942;2023-03-14T04:43:39;7.82;;;1.48;;
33672;SDS011;20011;51.510;9.942;2023-03-14T04:46:08;5.03;;;1.23;;
33672;SDS011;20011;51.510;9.942;2023-03-14T04:48:35;8.75;;;1.40;;
33672;SDS011;20011;51.510;9.942;2023-03-14T04:51:05;5.30;;;1.23;;
33672;SDS011;20011;51.510;9.942;2023-03-14T04:53:33;6.50;;;1.20;;
33672;SDS011;20011;51.510;9.942;2023-03-14T04:56:04;9.10;;;2.28;;
33672;SDS011;20011;51.510;9.942;2023-03-14T04:58:39;4.03;;;1.30;;
33672;SDS011;20011;51.510;9.942;2023-03-14T05:01:07;8.52;;;1.48;;
33672;SDS011;20011;51.510;9.942;2023-03-14T05:03:52;2.50;;;1.23;;
33672;SDS011;20011;51.510;9.942;2023-03-14T05:06:28;7.45;;;1.70;;
33672;SDS011;20011;51.510;9.942;2023-03-14T05:09:10;6.35;;;1.52;;
33672;SDS011;20011;51.510;9.942;2023-03-14T05:11:37;4.45;;;1.30;;
33672;SDS011;20011;51.510;9.942;2023-03-14T05:14:04;4.22;;;1.02;;
33672;SDS011;20011;51.510;9.942;2023-03-14T05:16:34;11.35;;;2.35;;
33672;SDS011;20011;51.510;9.942;2023-03-14T05:19:13;3.15;;;1.08;;
33672;SDS011;20011;51.510;9.942;2023-03-14T05:21:59;9.73;;;1.70;;
33672;SDS011;20011;51.510;9.942;2023-03-14T05:24:34;7.97;;;1.65;;
33672;SDS011;20011;51.510;9.942;2023-03-14T05:27:16;6.85;;;1.58;;
33672;SDS011;20011;51.510;9.942;2023-03-14T05:30:01;5.05;;;1.60;;
33672;SDS011;20011;51.510;9.942;2023-03-14T05:32:43;5.93;;;1.35;;
33672;SDS011;20011;51.510;9.942;2023-03-14T05:35:28;6.05;;;1.40;;
33672;SDS011;20011;51.510;9.942;2023-03-14T05:38:08;3.75;;;1.20;;
33672;SDS011;20011;51.510;9.942;2023-03-14T05:40:44;6.22;;;1.85;;
33672;SDS011;20011;51.510;9.942;2023-03-14T05:43:30;4.40;;;1.75;;
33672;SDS011;20011;51.510;9.942;2023-03-14T05:46:09;7.32;;;1.33;;
33672;SDS011;20011;51.510;9.942;2023-03-14T05:49:11;7.93;;;2.05;;
33672;SDS011;20011;51.510;9.942;2023-03-14T05:51:48;3.70;;;1.20;;
33672;SDS011;20011;51.510;9.942;2023-03-14T05:54:34;5.60;;;1.23;;
33672;SDS011;20011;51.510;9.942;2023-03-14T05:57:39;3.47;;;1.33;;
33672;SDS011;20011;51.510;9.942;2023-03-14T06:00:21;10.68;;;1.60;;
33672;SDS011;20011;51.510;9.942;2023-03-14T06:03:04;3.97;;;1.25;;
33672;SDS011;20011;51.510;9.942;2023-03-14T06:05:36;4.72;;;1.58;;
33672;SDS011;20011;51.510;9.942;2023-03-14T06:08:03;2.97;;;1.60;;
33672;SDS011;20011;51.510;9.942;2023-03-14T06:10:32;7.15;;;2.03;;
33672;SDS011;20011;51.510;9.942;2023-03-14T06:13:00;6.55;;;1.35;;
33672;SDS011;20011;51.510;9.942;2023-03-14T06:15:29;6.93;;;1.48;;
33672;SDS011;20011;51.510;9.942;2023-03-14T06:17:57;7.55;;;1.55;;
33672;SDS011;20011;51.510;9.942;2023-03-14T06:20:25;8.07;;;1.83;;
33672;SDS011;20011;51.510;9.942;2023-03-14T06:22:53;5.10;;;1.40;;
33672;SDS011;20011;51.510;9.942;2023-03-14T06:25:20;4.32;;;1.30;;
33672;SDS011;20011;51.510;9.942;2023-03-14T06:27:47;6.97;;;2.13;;
33672;SDS011;20011;51.510;9.942;2023-03-14T06:30:15;6.95;;;1.50;;
33672;SDS011;20011;51.510;9.942;2023-03-14T06:32:43;7.72;;;1.33;;
33672;SDS011;20011;51.510;9.942;2023-03-14T06:35:13;5.50;;;1.83;;
33672;SDS011;20011;51.510;9.942;2023-03-14T06:37:42;7.82;;;1.10;;
33672;SDS011;20011;51.510;9.942;2023-03-14T06:40:10;3.10;;;0.95;;
33672;SDS011;20011;51.510;9.942;2023-03-14T06:42:57;5.10;;;1.10;;
33672;SDS011;20011;51.510;9.942;2023-03-14T06:45:26;4.23;;;1.20;;
33672;SDS011;20011;51.510;9.942;2023-03-14T06:47:55;3.10;;;0.95;;
33672;SDS011;20011;51.510;9.942;2023-03-14T06:50:29;3.40;;;0.93;;
33672;SDS011;20011;51.510;9.942;2023-03-14T06:52:58;2.20;;;1.00;;
33672;SDS011;20011;51.510;9.942;2023-03-14T06:55:25;3.03;;;0.98;;
33672;SDS011;20011;51.510;9.942;2023-03-14T06:57:53;3.33;;;0.88;;
33672;SDS011;20011;51.510;9.942;2023-03-14T07:00:20;3.22;;;1.23;;
33672;SDS011;20011;51.510;9.942;2023-03-14T07:02:48;5.03;;;1.20;;
33672;SDS011;20011;51.510;9.942;2023-03-14T07:05:25;1.98;;;0.93;;
33672;SDS011;20011;51.510;9.942;2023-03-14T07:07:52;3.65;;;1.02;;
33672;SDS011;20011;51.510;9.942;2023-03-14T07:10:19;2.10;;;1.08;;
33672;SDS011;20011;51.510;9.942;2023-03-14T07:12:46;2.35;;;0.95;;
33672;SDS011;20011;51.510;9.942;2023-03-14T07:15:13;4.07;;;1.02;;
33672;SDS011;20011;51.510;9.942;2023-03-14T07:17:48;3.47;;;1.02;;
33672;SDS011;20011;51.510;9.942;2023-03-14T07:20:17;4.93;;;1.13;;
33672;SDS011;20011;51.510;9.942;2023-03-14T07:22:47;5.18;;;1.23;;
33672;SDS011;20011;51.510;9.942;2023-03-14T07:25:17;1.60;;;0.80;;
33672;SDS011;20011;51.510;9.942;2023-03-14T07:27:44;5.72;;;1.65;;
33672;SDS011;20011;51.510;9.942;2023-03-14T07:30:14;2.67;;;1.00;;
33672;SDS011;20011;51.510;9.942;2023-03-14T07:32:41;2.13;;;0.80;;
33672;SDS011;20011;51.510;9.942;2023-03-14T07:35:08;6.85;;;1.25;;
33672;SDS011;20011;51.510;9.942;2023-03-14T07:37:38;3.05;;;0.77;;
33672;SDS011;20011;51.510;9.942;2023-03-14T07:40:06;1.63;;;0.77;;
33672;SDS011;20011;51.510;9.942;2023-03-14T07:42:35;7.77;;;0.90;;
33672;SDS011;20011;51.510;9.942;2023-03-14T07:45:21;3.38;;;0.98;;
33672;SDS011;20011;51.510;9.942;2023-03-14T07:47:51;3.70;;;0.90;;
33672;SDS011;20011;51.510;9.942;2023-03-14T07:50:18;2.97;;;0.95;;
33672;SDS011;20011;51.510;9.942;2023-03-14T07:52:45;1.92;;;0.90;;
33672;SDS011;20011;51.510;9.942;2023-03-14T07:55:12;4.57;;;0.98;;
33672;SDS011;20011;51.510;9.942;2023-03-14T07:57:39;2.08;;;1.27;;
33672;SDS011;20011;51.510;9.942;2023-03-14T08:00:07;2.70;;;1.00;;
33672;SDS011;20011;51.510;9.942;2023-03-14T08:02:38;3.15;;;0.88;;
33672;SDS011;20011;51.510;9.942;2023-03-14T08:05:05;1.58;;;0.80;;
33672;SDS011;20011;51.510;9.942;2023-03-14T08:07:33;2.90;;;0.98;;
33672;SDS011;20011;51.510;9.942;2023-03-14T08:10:00;6.30;;;1.45;;
33672;SDS011;20011;51.510;9.942;2023-03-14T08:12:27;2.83;;;1.15;;
33672;SDS011;20011;51.510;9.942;2023-03-14T08:14:54;3.50;;;0.93;;
33672;SDS011;20011;51.510;9.942;2023-03-14T08:17:21;3.88;;;1.20;;
33672;SDS011;20011;51.510;9.942;2023-03-14T08:19:48;2.05;;;0.85;;
33672;SDS011;20011;51.510;9.942;2023-03-14T08:22:15;4.03;;;0.88;;
33672;SDS011;20011;51.510;9.942;2023-03-14T08:24:45;4.28;;;1.10;;
33672;SDS011;20011;51.510;9.942;2023-03-14T08:27:12;2.17;;;0.70;;
33672;SDS011;20011;51.510;9.942;2023-03-14T08:29:40;2.75;;;0.93;;
33672;SDS011;20011;51.510;9.942;2023-03-14T08:32:08;4.05;;;1.00;;
33672;SDS011;20011;51.510;9.942;2023-03-14T08:34:35;1.00;;;0.90;;
33672;SDS011;20011;51.510;9.942;2023-03-14T08:37:04;2.47;;;0.47;;
33672;SDS011;20011;51.510;9.942;2023-03-14T08:39:48;5.13;;;1.42;;
33672;SDS011;20011;51.510;9.942;2023-03-14T08:42:15;8.70;;;1.10;;
33672;SDS011;20011;51.510;9.942;2023-03-14T08:44:43;1.45;;;0.90;;
33672;SDS011;20011;51.510;9.942;2023-03-14T08:47:10;2.30;;;0.75;;
33672;SDS011;20011;51.510;9.942;2023-03-14T08:49:37;0.75;;;0.75;;
33672;SDS011;20011;51.510;9.942;2023-03-14T08:52:04;1.08;;;0.63;;
33672;SDS011;20011;51.510;9.942;2023-03-14T08:54:31;1.67;;;0.77;;
33672;SDS011;20011;51.510;9.942;2023-03-14T08:56:58;1.85;;;0.77;;
33672;SDS011;20011;51.510;9.942;2023-03-14T08:59:25;0.60;;;0.55;;
33672;SDS011;20011;51.510;9.942;2023-03-14T09:01:52;1.85;;;0.50;;
33672;SDS011;20011;51.510;9.942;2023-03-14T09:04:21;1.25;;;0.50;;
33672;SDS011;20011;51.510;9.942;2023-03-14T09:06:48;2.35;;;0.88;;
33672;SDS011;20011;51.510;9.942;2023-03-14T09:09:15;1.30;;;0.60;;
33672;SDS011;20011;51.510;9.942;2023-03-14T09:11:42;3.83;;;0.52;;
33672;SDS011;20011;51.510;9.942;2023-03-14T09:14:09;1.88;;;0.70;;
33672;SDS011;20011;51.510;9.942;2023-03-14T09:16:36;2.75;;;0.70;;
33672;SDS011;20011;51.510;9.942;2023-03-14T09:19:03;2.05;;;1.00;;
33672;SDS011;20011;51.510;9.942;2023-03-14T09:21:30;1.75;;;0.77;;
33672;SDS011;20011;51.510;9.942;2023-03-14T09:23:57;2.35;;;0.98;;
33672;SDS011;20011;51.510;9.942;2023-03-14T09:26:24;2.72;;;0.90;;
33672;SDS011;20011;51.510;9.942;2023-03-14T09:28:51;3.00;;;0.80;;
33672;SDS011;20011;51.510;9.942;2023-03-14T09:31:18;1.17;;;0.52;;
33672;SDS011;20011;51.510;9.942;2023-03-14T09:33:45;4.13;;;0.82;;
33672;SDS011;20011;51.510;9.942;2023-03-14T09:36:12;0.70;;;0.50;;
33672;SDS011;20011;51.510;9.942;2023-03-14T09:38:39;0.93;;;0.60;;
33672;SDS011;20011;51.510;9.942;2023-03-14T09:41:14;0.60;;;0.60;;
33672;SDS011;20011;51.510;9.942;2023-03-14T09:43:44;0.40;;;0.40;;
33672;SDS011;20011;51.510;9.942;2023-03-14T09:46:17;2.40;;;0.60;;
33672;SDS011;20011;51.510;9.942;2023-03-14T09:48:45;4.38;;;0.80;;
33672;SDS011;20011;51.510;9.942;2023-03-14T09:51:13;1.90;;;0.93;;
33672;SDS011;20011;51.510;9.942;2023-03-14T09:53:43;3.55;;;0.80;;
33672;SDS011;20011;51.510;9.942;2023-03-14T09:56:17;7.82;;;0.63;;
33672;SDS011;20011;51.510;9.942;2023-03-14T09:58:53;1.23;;;0.85;;
33672;SDS011;20011;51.510;9.942;2023-03-14T10:01:27;1.95;;;0.60;;
33672;SDS011;20011;51.510;9.942;2023-03-14T10:04:02;2.92;;;0.57;;
33672;SDS011;20011;51.510;9.942;2023-03-14T10:06:36;1.30;;;0.70;;
33672;SDS011;20011;51.510;9.942;2023-03-14T10:09:03;3.33;;;0.77;;
33672;SDS011;20011;51.510;9.942;2023-03-14T10:11:32;2.28;;;0.65;;
33672;SDS011;20011;51.510;9.942;2023-03-14T10:14:06;1.15;;;0.60;;
33672;SDS011;20011;51.510;9.942;2023-03-14T10:16:43;2.15;;;0.65;;
33672;SDS011;20011;51.510;9.942;2023-03-14T10:19:13;0.60;;;0.52;;
33672;SDS011;20011;51.510;9.942;2023-03-14T10:21:43;7.25;;;1.00;;
33672;SDS011;20011;51.510;9.942;2023-03-14T10:26:54;1.63;;;0.70;;
33672;SDS011;20011;51.510;9.942;2023-03-14T10:29:24;1.42;;;0.57;;
33672;SDS011;20011;51.510;9.942;2023-03-14T10:31:52;1.00;;;0.52;;
33672;SDS011;20011;51.510;9.942;2023-03-14T10:36:59;2.42;;;0.63;;
33672;SDS011;20011;51.510;9.942;2023-03-14T10:44:49;0.60;;;0.60;;
33672;SDS011;20011;51.510;9.942;2023-03-14T10:47:23;2.50;;;0.95;;
33672;SDS011;20011;51.510;9.942;2023-03-14T10:52:24;2.30;;;0.60;;
33672;SDS011;20011;51.510;9.942;2023-03-14T10:55:02;2.38;;;0.98;;
33672;SDS011;20011;51.510;9.942;2023-03-14T10:57:41;3.15;;;1.08;;
33672;SDS011;20011;51.510;9.942;2023-03-14T11:00:14;0.70;;;0.50;;
33672;SDS011;20011;51.510;9.942;2023-03-14T11:05:34;0.85;;;0.63;;
33672;SDS011;20011;51.510;9.942;2023-03-14T11:10:47;0.40;;;0.40;;
33672;SDS011;20011;51.510;9.942;2023-03-14T11:13:29;1.40;;;0.73;;
33672;SDS011;20011;51.510;9.942;2023-03-14T11:16:19;5.03;;;1.00;;
33672;SDS011;20011;51.510;9.942;2023-03-14T11:19:00;3.25;;;0.80;;
33672;SDS011;20011;51.510;9.942;2023-03-14T11:27:21;4.90;;;0.75;;
33672;SDS011;20011;51.510;9.942;2023-03-14T11:29:55;2.88;;;0.50;;
33672;SDS011;20011;51.510;9.942;2023-03-14T11:32:44;2.00;;;0.70;;
33672;SDS011;20011;51.510;9.942;2023-03-14T11:40:36;2.50;;;0.60;;
33672;SDS011;20011;51.510;9.942;2023-03-14T11:45:35;2.28;;;0.50;;
33672;SDS011;20011;51.510;9.942;2023-03-14T11:48:17;0.47;;;0.38;;
33672;SDS011;20011;51.510;9.942;2023-03-14T11:50:57;1.38;;;0.55;;
33672;SDS011;20011;51.510;9.942;2023-03-14T11:53:47;1.33;;;0.70;;
33672;SDS011;20011;51.510;9.942;2023-03-14T11:56:44;1.48;;;0.70;;
33672;SDS011;20011;51.510;9.942;2023-03-14T11:59:19;3.97;;;0.57;;
33672;SDS011;20011;51.510;9.942;2023-03-14T12:01:55;0.52;;;0.52;;
33672;SDS011;20011;51.510;9.942;2023-03-14T12:10:30;0.90;;;0.57;;
33672;SDS011;20011;51.510;9.942;2023-03-14T12:13:07;2.97;;;0.70;;
33672;SDS011;20011;51.510;9.942;2023-03-14T12:15:40;5.15;;;0.68;;
33672;SDS011;20011;51.510;9.942;2023-03-14T12:18:21;0.30;;;0.30;;
33672;SDS011;20011;51.510;9.942;2023-03-14T12:20:56;1.73;;;0.82;;
33672;SDS011;20011;51.510;9.942;2023-03-14T12:23:25;1.30;;;0.60;;
33672;SDS011;20011;51.510;9.942;2023-03-14T12:26:07;2.30;;;0.88;;
33672;SDS011;20011;51.510;9.942;2023-03-14T12:28:38;0.45;;;0.45;;
33672;SDS011;20011;51.510;9.942;2023-03-14T12:34:43;12.00;;;1.80;;
33672;SDS011;20011;51.510;9.942;2023-03-14T12:45:14;2.00;;;0.30;;
33672;SDS011;20011;51.510;9.942;2023-03-14T12:50:19;0.28;;;0.28;;
33672;SDS011;20011;51.510;9.942;2023-03-14T12:55:25;3.88;;;0.40;;
33672;SDS011;20011;51.510;9.942;2023-03-14T13:01:28;0.30;;;0.30;;
33672;SDS011;20011;51.510;9.942;2023-03-14T13:03:56;1.25;;;0.50;;
33672;SDS011;20011;51.510;9.942;2023-03-14T13:07:03;0.80;;;0.50;;
33672;SDS011;20011;51.510;9.942;2023-03-14T13:12:02;0.32;;;0.30;;
33672;SDS011;20011;51.510;9.942;2023-03-14T13:14:35;2.75;;;0.47;;
33672;SDS011;20011;51.510;9.942;2023-03-14T13:17:10;4.63;;;0.52;;
33672;SDS011;20011;51.510;9.942;2023-03-14T13:20:00;0.30;;;0.30;;
33672;SDS011;20011;51.510;9.942;2023-03-14T13:22:37;0.35;;;0.35;;
33672;SDS011;20011;51.510;9.942;2023-03-14T13:25:06;0.32;;;0.32;;
33672;SDS011;20011;51.510;9.942;2023-03-14T13:27:35;0.77;;;0.30;;
33672;SDS011;20011;51.510;9.942;2023-03-14T13:30:23;4.03;;;0.40;;
33672;SDS011;20011;51.510;9.942;2023-03-14T13:32:55;0.85;;;0.60;;
33672;SDS011;20011;51.510;9.942;2023-03-14T13:35:27;1.85;;;0.50;;
33672;SDS011;20011;51.510;9.942;2023-03-14T13:37:59;16.00;;;0.90;;
33672;SDS011;20011;51.510;9.942;2023-03-14T13:40:37;17.58;;;1.10;;
33672;SDS011;20011;51.510;9.942;2023-03-14T13:43:09;15.55;;;2.25;;
33672;SDS011;20011;51.510;9.942;2023-03-14T13:46:23;0.43;;;0.40;;
33672;SDS011;20011;51.510;9.942;2023-03-14T13:48:40;2.53;;;0.28;;
33672;SDS011;20011;51.510;9.942;2023-03-14T13:51:11;3.35;;;0.30;;
33672;SDS011;20011;51.510;9.942;2023-03-14T13:56:15;0.25;;;0.20;;
33672;SDS011;20011;51.510;9.942;2023-03-14T13:58:49;0.35;;;0.35;;
33672;SDS011;20011;51.510;9.942;2023-03-14T14:04:07;5.47;;;0.40;;
33672;SDS011;20011;51.510;9.942;2023-03-14T14:09:19;0.70;;;0.40;;
33672;SDS011;20011;51.510;9.942;2023-03-14T14:12:10;0.40;;;0.40;;
33672;SDS011;20011;51.510;9.942;2023-03-14T14:17:25;8.20;;;0.65;;
33672;SDS011;20011;51.510;9.942;2023-03-14T14:20:56;3.55;;;1.63;;
33672;SDS011;20011;51.510;9.942;2023-03-14T14:23:09;3.80;;;0.90;;
33672;SDS011;20011;51.510;9.942;2023-03-14T14:25:38;2.60;;;0.85;;
33672;SDS011;20011;51.510;9.942;2023-03-14T14:28:15;4.15;;;0.52;;
33672;SDS011;20011;51.510;9.942;2023-03-14T14:31:01;3.30;;;0.73;;
33672;SDS011;20011;51.510;9.942;2023-03-14T14:33:37;6.72;;;1.10;;
33672;SDS011;20011;51.510;9.942;2023-03-14T14:41:47;6.25;;;1.17;;
33672;SDS011;20011;51.510;9.942;2023-03-14T14:44:17;2.90;;;0.90;;
33672;SDS011;20011;51.510;9.942;2023-03-14T14:46:52;7.03;;;1.23;;
33672;SDS011;20011;51.510;9.942;2023-03-14T14:49:27;6.03;;;1.00;;
33672;SDS011;20011;51.510;9.942;2023-03-14T14:52:00;5.30;;;1.23;;
33672;SDS011;20011;51.510;9.942;2023-03-14T14:54:47;4.93;;;0.90;;
33672;SDS011;20011;51.510;9.942;2023-03-14T14:57:22;3.53;;;0.98;;
33672;SDS011;20011;51.510;9.942;2023-03-14T14:59:54;3.13;;;1.42;;
33672;SDS011;20011;51.510;9.942;2023-03-14T15:05:16;8.98;;;2.13;;
33672;SDS011;20011;51.510;9.942;2023-03-14T15:07:44;2.95;;;1.20;;
33672;SDS011;20011;51.510;9.942;2023-03-14T15:10:12;3.47;;;1.00;;
33672;SDS011;20011;51.510;9.942;2023-03-14T15:12:44;7.40;;;1.10;;
33672;SDS011;20011;51.510;9.942;2023-03-14T15:15:13;7.20;;;1.40;;
33672;SDS011;20011;51.510;9.942;2023-03-14T15:17:41;12.73;;;2.45;;
33672;SDS011;20011;51.510;9.942;2023-03-14T15:20:13;8.57;;;1.35;;
33672;SDS011;20011;51.510;9.942;2023-03-14T15:22:41;7.07;;;1.70;;
33672;SDS011;20011;51.510;9.942;2023-03-14T15:25:09;5.18;;;1.65;;
33672;SDS011;20011;51.510;9.942;2023-03-14T15:27:56;10.80;;;1.35;;
33672;SDS011;20011;51.510;9.942;2023-03-14T15:30:23;5.30;;;1.50;;
33672;SDS011;20011;51.510;9.942;2023-03-14T15:32:51;7.75;;;1.88;;
33672;SDS011;20011;51.510;9.942;2023-03-14T15:35:18;10.48;;;1.45;;
33672;SDS011;20011;51.510;9.942;2023-03-14T15:37:46;7.43;;;1.48;;
33672;SDS011;20011;51.510;9.942;2023-03-14T15:40:13;22.00;;;1.80;;
33672;SDS011;20011;51.510;9.942;2023-03-14T15:42:41;17.70;;;3.22;;
33672;SDS011;20011;51.510;9.942;2023-03-14T15:45:08;16.33;;;2.70;;
33672;SDS011;20011;51.510;9.942;2023-03-14T15:47:35;15.23;;;2.45;;
33672;SDS011;20011;51.510;9.942;2023-03-14T15:50:04;19.88;;;2.22;;
33672;SDS011;20011;51.510;9.942;2023-03-14T15:52:31;21.42;;;3.55;;
33672;SDS011;20011;51.510;9.942;2023-03-14T15:55:00;17.40;;;3.42;;
33672;SDS011;20011;51.510;9.942;2023-03-14T15:57:27;17.35;;;2.08;;
33672;SDS011;20011;51.510;9.942;2023-03-14T15:59:54;20.58;;;2.78;;
33672;SDS011;20011;51.510;9.942;2023-03-14T16:02:22;6.65;;;1.63;;
33672;SDS011;20011;51.510;9.942;2023-03-14T16:04:49;11.60;;;2.20;;
33672;SDS011;20011;51.510;9.942;2023-03-14T16:07:16;10.32;;;2.10;;
33672;SDS011;20011;51.510;9.942;2023-03-14T16:09:43;15.18;;;2.20;;
33672;SDS011;20011;51.510;9.942;2023-03-14T16:12:10;15.00;;;3.55;;
33672;SDS011;20011;51.510;9.942;2023-03-14T16:14:38;11.52;;;2.50;;
33672;SDS011;20011;51.510;9.942;2023-03-14T16:17:09;11.65;;;2.58;;
33672;SDS011;20011;51.510;9.942;2023-03-14T16:19:39;22.13;;;3.65;;
33672;SDS011;20011;51.510;9.942;2023-03-14T16:22:06;21.40;;;2.40;;
33672;SDS011;20011;51.510;9.942;2023-03-14T16:24:33;14.65;;;2.60;;
33672;SDS011;20011;51.510;9.942;2023-03-14T16:27:01;17.00;;;2.85;;
33672;SDS011;20011;51.510;9.942;2023-03-14T16:29:29;18.38;;;2.25;;
33672;SDS011;20011;51.510;9.942;2023-03-14T16:31:56;13.57;;;3.30;;
33672;SDS011;20011;51.510;9.942;2023-03-14T16:34:23;17.70;;;2.58;;
33672;SDS011;20011;51.510;9.942;2023-03-14T16:36:50;18.27;;;2.88;;
33672;SDS011;20011;51.510;9.942;2023-03-14T16:39:17;18.98;;;2.70;;
33672;SDS011;20011;51.510;9.942;2023-03-14T16:41:44;19.27;;;2.30;;
33672;SDS011;20011;51.510;9.942;2023-03-14T16:44:11;8.23;;;2.30;;
33672;SDS011;20011;51.510;9.942;2023-03-14T16:46:38;15.02;;;2.47;;